Time;durP1;ratioP1;P1;durP2;ratioP2;P2;SDS_P1;SDS_P2;PMS_P1;PMS_P2;Temp;Humidity;BMP_temperature;BMP_pressure;BME280_temperature;BME280_humidity;BME280_pressure;Samples;Min_cycle;Max_cycle;Signal;HPM_P1;HPM_P2
2023/12/28 00:00:07;;;;;;;2.78;0.90;;;;;;;10.30;40.70;93105.06;2114975;28;20023;-79
2023/12/28 00:01:08;;;;;;;1.42;0.95;;;;;;;10.02;43.26;93106.38;2106750;28;20020;-80
2023/12/28 00:02:09;;;;;;;0.95;0.85;;;;;;;10.03;40.64;93115.88;2106955;28;20037;-79
2023/12/28 00:03:10;;;;;;;0.93;0.93;;;;;;;10.11;41.47;93107.75;2090027;28;20060;-81
2023/12/28 00:04:11;;;;;;;2.75;0.90;;;;;;;10.12;42.52;93107.31;2106508;28;20019;-81
2023/12/28 00:05:12;;;;;;;1.00;0.90;;;;;;;10.30;40.13;93112.34;2115943;27;20471;-80
2023/12/28 00:06:13;;;;;;;0.77;0.75;;;;;;;10.66;39.18;93111.56;2101235;28;20031;-79
2023/12/28 00:07:14;;;;;;;1.52;1.10;;;;;;;10.62;40.26;93100.94;2088503;28;20101;-79
2023/12/28 00:08:15;;;;;;;1.73;0.90;;;;;;;10.48;40.79;93118.06;2098061;28;20024;-81
2023/12/28 00:09:16;;;;;;;1.38;1.27;;;;;;;10.50;40.21;93115.72;2114435;28;20423;-81
2023/12/28 00:10:17;;;;;;;2.08;0.90;;;;;;;10.42;41.26;93119.72;2106311;28;20419;-78
2023/12/28 00:11:18;;;;;;;2.15;1.00;;;;;;;10.75;38.98;93119.75;2106065;28;20353;-80
2023/12/28 00:12:19;;;;;;;1.33;1.00;;;;;;;10.71;38.46;93116.41;2106036;28;20020;-82
2023/12/28 00:13:20;;;;;;;1.75;1.10;;;;;;;10.67;40.26;93121.09;2114720;28;20124;-80
2023/12/28 00:14:20;;;;;;;1.75;0.95;;;;;;;10.57;40.77;93123.56;2123614;27;20031;-79
2023/12/28 00:15:22;;;;;;;1.60;1.10;;;;;;;10.58;41.85;93119.00;2106304;28;20413;-81
2023/12/28 00:16:23;;;;;;;1.20;0.90;;;;;;;10.33;41.18;93124.88;2108592;28;20031;-82
2023/12/28 00:17:24;;;;;;;1.67;1.02;;;;;;;10.06;42.37;93125.75;2114522;28;20024;-80
2023/12/28 00:18:26;;;;;;;2.35;1.00;;;;;;;10.22;39.58;93125.03;2106163;28;20023;-80
2023/12/28 00:19:27;;;;;;;1.15;0.93;;;;;;;10.15;41.76;93124.47;2093142;28;20119;-78
2023/12/28 00:20:27;;;;;;;1.15;0.90;;;;;;;10.09;41.21;93143.59;2100807;28;20039;-78
2023/12/28 00:21:28;;;;;;;1.33;1.00;;;;;;;9.87;41.63;93147.09;2105612;28;20074;-81
2023/12/28 00:22:29;;;;;;;2.60;0.90;;;;;;;9.99;42.48;93139.25;2106744;28;20028;-79
2023/12/28 00:23:30;;;;;;;0.82;0.73;;;;;;;9.94;41.78;93155.75;2089915;28;20496;-82
2023/12/28 00:24:31;;;;;;;1.23;1.05;;;;;;;9.94;40.47;93131.72;2089748;28;20017;-78
2023/12/28 00:25:32;;;;;;;2.95;1.15;;;;;;;10.49;38.95;93140.19;2097979;28;20045;-79
2023/12/28 00:26:33;;;;;;;1.00;0.90;;;;;;;10.23;41.68;93150.63;2106731;28;20058;-79
2023/12/28 00:27:37;;;;;;;1.52;1.20;;;;;;;10.55;38.97;93141.22;2114491;28;20028;-79
2023/12/28 00:28:38;;;;;;;1.20;1.10;;;;;;;10.75;39.29;93149.16;2114780;28;20069;-80
2023/12/28 00:29:39;;;;;;;1.52;1.30;;;;;;;10.56;40.28;93137.38;2122450;27;20064;-79
2023/12/28 00:30:39;;;;;;;1.35;1.00;;;;;;;10.82;38.46;93135.66;2122182;27;20019;-80
2023/12/28 00:31:41;;;;;;;1.52;0.90;;;;;;;10.89;38.40;93140.06;2102539;28;20563;-80
2023/12/28 00:32:44;;;;;;;1.70;1.10;;;;;;;10.93;39.05;93138.84;2104524;28;20040;-79
2023/12/28 00:33:44;;;;;;;1.30;1.00;;;;;;;10.85;40.19;93134.84;2096705;27;20200;-79
2023/12/28 00:34:45;;;;;;;1.00;0.90;;;;;;;10.64;38.14;93140.66;2024340;27;22311;-79
2023/12/28 00:35:46;;;;;;;1.02;1.00;;;;;;;10.75;38.35;93125.09;2021966;28;20032;-78
2023/12/28 00:36:47;;;;;;;1.00;0.90;;;;;;;10.66;39.46;93122.25;2028948;28;20032;-79
2023/12/28 00:37:48;;;;;;;1.15;0.98;;;;;;;10.61;39.91;93139.53;2030507;28;20418;-80
2023/12/28 00:38:49;;;;;;;1.20;1.10;;;;;;;10.63;39.40;93142.56;2028071;28;20553;-79
2023/12/28 00:39:50;;;;;;;1.80;1.08;;;;;;;10.46;41.04;93131.09;2033402;28;20051;-80
2023/12/28 00:40:51;;;;;;;1.92;0.90;;;;;;;10.52;40.09;93132.09;2018957;28;20028;-81
2023/12/28 00:41:52;;;;;;;1.20;1.10;;;;;;;10.54;40.35;93129.78;2035051;28;20155;-79
2023/12/28 00:42:53;;;;;;;1.33;1.10;;;;;;;10.50;39.59;93131.75;2056566;27;20028;-80
2023/12/28 00:43:54;;;;;;;1.45;0.95;;;;;;;10.18;42.20;93134.28;2068850;27;20113;-79
2023/12/28 00:44:55;;;;;;;0.80;0.80;;;;;;;10.44;38.57;93135.31;2075055;27;20024;-80
2023/12/28 00:45:56;;;;;;;1.33;0.93;;;;;;;10.42;40.97;93133.06;2072801;28;20109;-81
2023/12/28 00:46:57;;;;;;;1.08;0.90;;;;;;;10.40;39.89;93145.34;2071086;28;20036;-80
2023/12/28 00:47:58;;;;;;;1.27;1.00;;;;;;;10.29;41.47;93135.63;2082201;28;20118;-79
2023/12/28 00:48:59;;;;;;;1.00;0.90;;;;;;;9.97;42.19;93144.25;2074799;28;20029;-79
2023/12/28 00:50:00;;;;;;;1.15;1.05;;;;;;;10.19;39.81;93143.84;2091968;28;20036;-81
2023/12/28 00:51:01;;;;;;;0.80;0.80;;;;;;;9.99;40.66;93133.91;2118271;27;20086;-80
2023/12/28 00:52:02;;;;;;;2.22;1.20;;;;;;;10.20;39.92;93138.06;2122940;27;20022;-80
2023/12/28 00:53:03;;;;;;;1.20;1.10;;;;;;;10.24;38.92;93143.34;2114938;28;20103;-79
2023/12/28 00:54:04;;;;;;;1.23;0.98;;;;;;;10.36;40.18;93140.09;2101720;28;20035;-79
2023/12/28 00:55:07;;;;;;;1.42;0.98;;;;;;;10.30;39.52;93137.13;2104974;28;20024;-81
2023/12/28 00:56:10;;;;;;;1.38;1.00;;;;;;;10.55;39.24;93133.94;2114157;28;20069;-79
2023/12/28 00:57:11;;;;;;;3.17;1.10;;;;;;;10.78;37.69;93149.09;2109305;28;20100;-80
2023/12/28 00:58:12;;;;;;;1.65;0.90;;;;;;;10.75;39.43;93139.22;2119877;27;20451;-80
2023/12/28 00:59:13;;;;;;;1.00;0.77;;;;;;;10.79;37.19;93131.88;2101359;28;20499;-79
2023/12/28 01:00:14;;;;;;;1.70;1.00;;;;;;;10.59;38.98;93148.00;2091886;28;20031;-80
2023/12/28 01:01:15;;;;;;;1.20;1.08;;;;;;;10.47;39.44;93137.94;2089505;28;20027;-81
2023/12/28 01:02:16;;;;;;;1.05;0.88;;;;;;;10.68;38.99;93141.31;2106672;28;20104;-80
2023/12/28 01:03:17;;;;;;;1.05;0.95;;;;;;;10.52;40.02;93136.69;2114627;28;20020;-81
2023/12/28 01:04:18;;;;;;;1.45;1.10;;;;;;;10.44;40.25;93141.41;2105433;28;20019;-80
2023/12/28 01:05:20;;;;;;;2.05;1.17;;;;;;;10.32;39.15;93142.06;2106502;28;20035;-80
2023/12/28 01:06:21;;;;;;;1.25;1.15;;;;;;;10.56;39.80;93137.38;2110184;28;20066;-79
2023/12/28 01:07:22;;;;;;;1.27;1.00;;;;;;;10.72;38.08;93118.69;2112961;28;20085;-79
2023/12/28 01:08:23;;;;;;;1.52;0.90;;;;;;;10.98;37.40;93141.03;2107631;28;20024;-80
2023/12/28 01:09:24;;;;;;;2.00;1.00;;;;;;;10.73;39.17;93132.81;2105226;28;20109;-81
2023/12/28 01:10:25;;;;;;;1.77;1.00;;;;;;;10.32;40.12;93144.75;2114377;28;20082;-82
2023/12/28 01:11:26;;;;;;;1.25;0.85;;;;;;;10.36;38.31;93139.31;2113598;28;20039;-83
2023/12/28 01:12:27;;;;;;;1.15;1.00;;;;;;;10.47;38.75;93127.25;2113691;28;20098;-80
2023/12/28 01:13:30;;;;;;;1.13;0.90;;;;;;;10.37;40.13;93146.94;2122344;27;20151;-81
2023/12/28 01:14:31;;;;;;;1.02;0.82;;;;;;;10.28;38.53;93134.13;2104624;28;20031;-79
2023/12/28 01:15:32;;;;;;;1.17;0.88;;;;;;;10.10;40.42;93128.38;2097933;28;20033;-81
2023/12/28 01:16:35;;;;;;;1.10;1.00;;;;;;;10.25;39.67;93142.22;2108673;28;20362;-80
2023/12/28 01:17:36;;;;;;;1.33;0.82;;;;;;;10.09;40.35;93135.59;2116224;27;20421;-80
2023/12/28 01:18:37;;;;;;;1.88;1.20;;;;;;;10.14;39.26;93152.31;2108294;27;20032;-81
2023/12/28 01:19:38;;;;;;;2.33;1.00;;;;;;;10.39;39.02;93147.25;2109635;28;20032;-80
2023/12/28 01:20:39;;;;;;;1.27;1.10;;;;;;;10.57;38.10;93141.53;2105688;28;20438;-79
2023/12/28 01:21:40;;;;;;;1.67;1.08;;;;;;;10.72;37.17;93158.78;2097187;28;20036;-80
2023/12/28 01:22:41;;;;;;;1.00;0.90;;;;;;;10.48;39.01;93163.47;2113567;28;20031;-80
2023/12/28 01:23:42;;;;;;;1.10;0.95;;;;;;;10.68;39.17;93150.09;2114284;28;20023;-80
2023/12/28 01:24:46;;;;;;;1.15;0.80;;;;;;;10.57;38.51;93154.91;2097401;28;20040;-78
2023/12/28 01:25:47;;;;;;;1.50;1.00;;;;;;;10.37;39.00;93148.84;2090670;28;20037;-80
2023/12/28 01:26:48;;;;;;;1.45;1.08;;;;;;;10.49;39.26;93159.66;2097956;28;20028;-81
2023/12/28 01:27:49;;;;;;;1.60;1.02;;;;;;;10.62;38.32;93153.66;2097480;28;20469;-80
2023/12/28 01:28:50;;;;;;;1.48;1.10;;;;;;;10.61;38.04;93154.84;2120917;27;20019;-79
2023/12/28 01:29:51;;;;;;;1.58;0.90;;;;;;;10.65;38.49;93144.81;2116559;27;20032;-80
2023/12/28 01:30:52;;;;;;;1.38;1.10;;;;;;;10.46;38.96;93152.47;2102763;28;20035;-79
2023/12/28 01:31:53;;;;;;;1.45;1.00;;;;;;;10.35;40.63;93154.59;2114101;28;20092;-79
2023/12/28 01:32:54;;;;;;;2.28;0.80;;;;;;;10.43;38.58;93163.22;2116871;27;20523;-80
2023/12/28 01:34:12;;;;;;;1.52;1.08;;;;;;;10.46;38.20;93160.47;2104910;28;20057;-80
2023/12/28 01:35:13;;;;;;;1.33;1.13;;;;;;;10.64;38.14;93156.69;2105799;28;20020;-80
2023/12/28 01:36:18;;;;;;;1.08;0.77;;;;;;;10.52;39.13;93152.72;2115418;27;20023;-79
2023/12/28 01:37:19;;;;;;;1.58;0.93;;;;;;;10.74;37.20;93161.78;2108574;28;20036;-81
2023/12/28 01:38:20;;;;;;;1.15;0.80;;;;;;;10.79;38.62;93171.25;2106438;28;20016;-80
2023/12/28 01:39:21;;;;;;;1.30;1.00;;;;;;;10.55;38.26;93160.66;2114293;28;20030;-79
2023/12/28 01:40:22;;;;;;;2.65;1.00;;;;;;;10.38;39.65;93164.47;2114761;28;20022;-79
2023/12/28 01:41:23;;;;;;;1.35;0.85;;;;;;;10.31;38.46;93175.28;2097453;28;20027;-81
2023/12/28 01:42:24;;;;;;;1.13;0.82;;;;;;;10.49;38.23;93161.56;2101377;28;20032;-79
2023/12/28 01:43:25;;;;;;;1.35;0.90;;;;;;;10.64;38.17;93157.44;2103354;28;20033;-82
2023/12/28 01:44:26;;;;;;;1.48;0.90;;;;;;;10.48;38.68;93158.13;2046616;28;20033;-81
2023/12/28 01:45:27;;;;;;;1.02;0.93;;;;;;;10.33;40.33;93155.00;2013162;28;20028;-81
2023/12/28 01:46:31;;;;;;;1.10;1.00;;;;;;;10.26;40.18;93162.41;2011767;28;20485;-80
2023/12/28 01:47:32;;;;;;;1.40;1.10;;;;;;;10.50;38.27;93168.44;2029191;28;20046;-79
2023/12/28 01:48:33;;;;;;;1.15;1.05;;;;;;;10.41;38.74;93177.00;2032483;28;20357;-81
2023/12/28 01:49:35;;;;;;;1.35;1.10;;;;;;;10.11;41.10;93166.50;2032930;28;20111;-80
2023/12/28 01:50:37;;;;;;;1.45;1.00;;;;;;;10.22;39.23;93183.81;2050699;28;20162;-81
2023/12/28 01:51:39;;;;;;;1.30;0.82;;;;;;;10.46;37.53;93184.53;2056034;27;20141;-79
2023/12/28 01:52:40;;;;;;;1.95;0.98;;;;;;;10.87;36.49;93185.97;2056526;28;20070;-81
2023/12/28 01:53:43;;;;;;;1.80;0.98;;;;;;;10.85;38.64;93174.94;2056825;27;20031;-80
2023/12/28 01:54:44;;;;;;;1.00;0.90;;;;;;;10.65;37.29;93185.66;2057557;27;20631;-82
2023/12/28 01:55:45;;;;;;;1.00;0.90;;;;;;;10.79;37.19;93188.03;2061921;27;22626;-80
2023/12/28 01:56:46;;;;;;;1.58;1.15;;;;;;;10.83;36.84;93198.66;2078398;27;20031;-79
2023/12/28 01:57:48;;;;;;;1.42;1.00;;;;;;;10.69;38.02;93190.94;2088105;27;20023;-80
2023/12/28 01:58:52;;;;;;;1.42;1.00;;;;;;;10.63;38.15;93196.03;2092877;27;22313;-79
2023/12/28 01:59:54;;;;;;;1.25;0.95;;;;;;;10.82;37.75;93189.88;2086724;28;20419;-80
2023/12/28 02:00:58;;;;;;;1.02;0.85;;;;;;;10.78;37.27;93209.84;2086768;28;20094;-80
2023/12/28 02:01:59;;;;;;;1.60;1.15;;;;;;;10.82;37.97;93197.91;2093900;27;20026;-80
2023/12/28 02:03:01;;;;;;;1.05;0.90;;;;;;;10.66;38.57;93210.47;2092848;28;20081;-80
2023/12/28 02:04:02;;;;;;;0.88;0.88;;;;;;;10.57;38.51;93200.34;2091813;28;20131;-79
2023/12/28 02:05:04;;;;;;;1.65;1.00;;;;;;;10.76;36.94;93191.56;2105230;28;20028;-81
2023/12/28 02:06:07;;;;;;;1.13;1.00;;;;;;;10.84;38.64;93206.28;2122463;27;20437;-80
2023/12/28 02:07:10;;;;;;;1.10;0.90;;;;;;;10.71;37.62;93213.44;2129065;27;20034;-81
2023/12/28 02:08:11;;;;;;;0.95;0.93;;;;;;;10.68;38.06;93213.50;2104597;28;20032;-79
2023/12/28 02:09:12;;;;;;;0.80;0.80;;;;;;;10.62;39.33;93209.78;2105405;28;20651;-80
2023/12/28 02:10:13;;;;;;;2.85;1.00;;;;;;;10.72;38.85;93204.25;2114895;28;20099;-79
2023/12/28 02:11:14;;;;;;;1.40;1.00;;;;;;;10.42;39.17;93218.59;2111813;28;20027;-79
2023/12/28 02:12:15;;;;;;;2.38;1.17;;;;;;;10.54;39.85;93203.84;2112997;28;20049;-80
2023/12/28 02:13:16;;;;;;;1.42;1.02;;;;;;;10.62;37.80;93191.06;2105824;28;20560;-79
2023/12/28 02:14:18;;;;;;;0.90;0.88;;;;;;;10.59;38.48;93203.38;2113962;28;20387;-80
2023/12/28 02:15:19;;;;;;;1.10;1.00;;;;;;;10.57;39.58;93197.66;2105759;28;20705;-79
2023/12/28 02:16:36;;;;;;;1.20;0.90;;;;;;;10.35;39.42;93194.66;2097603;28;20058;-80
2023/12/28 02:17:49;;;;;;;1.60;0.80;;;;;;;10.28;40.01;93210.84;2107540;28;20035;-79
2023/12/28 02:18:53;;;;;;;1.65;1.00;;;;;;;10.48;38.58;93206.25;2093554;28;20024;-78
2023/12/28 02:19:55;;;;;;;1.48;1.00;;;;;;;10.54;39.09;93209.94;2102042;28;20024;-79
2023/12/28 02:20:58;;;;;;;1.75;0.95;;;;;;;10.24;40.03;93213.59;2122146;27;20061;-79
2023/12/28 02:21:59;;;;;;;1.15;0.85;;;;;;;10.56;39.20;93212.19;2113920;28;20077;-80
2023/12/28 02:23:01;;;;;;;1.67;0.80;;;;;;;10.56;38.13;93215.63;2109369;28;20028;-80
2023/12/28 02:24:02;;;;;;;1.20;1.00;;;;;;;10.41;39.43;93211.75;2111102;28;20027;-78
2023/12/28 02:25:11;;;;;;;1.17;0.93;;;;;;;10.44;38.16;93218.91;2104190;28;20040;-81
2023/12/28 02:26:12;;;;;;;1.10;1.00;;;;;;;10.54;38.90;93209.19;2121304;27;20027;-82
2023/12/28 02:27:13;;;;;;;1.67;1.10;;;;;;;10.47;39.70;93218.09;2116351;27;20023;-80
2023/12/28 02:28:15;;;;;;;1.50;0.85;;;;;;;10.30;39.22;93219.94;2117577;27;20181;-79
2023/12/28 02:29:16;;;;;;;1.15;0.95;;;;;;;10.70;37.80;93216.50;2114275;28;20019;-79
2023/12/28 02:30:21;;;;;;;1.30;1.20;;;;;;;10.67;37.98;93202.06;2113969;28;20019;-80
2023/12/28 02:31:35;;;;;;;1.35;1.10;;;;;;;10.67;39.03;93207.41;2096557;28;20028;-79
2023/12/28 02:32:47;;;;;;;1.55;0.93;;;;;;;10.54;39.02;93209.19;2106918;28;20649;-78
2023/12/28 02:33:57;;;;;;;0.90;0.90;;;;;;;10.38;40.04;93211.81;2108835;28;20028;-78
2023/12/28 02:35:05;;;;;;;1.63;1.10;;;;;;;10.26;39.79;93208.56;2110360;28;20415;-80
2023/12/28 02:36:11;;;;;;;1.02;0.90;;;;;;;10.36;39.73;93219.47;2113856;28;20436;-79
2023/12/28 02:37:14;;;;;;;1.30;0.90;;;;;;;10.38;39.91;93217.16;2113861;28;20098;-79
2023/12/28 02:38:18;;;;;;;1.05;0.90;;;;;;;10.26;39.61;93235.28;2106148;28;20024;-78
2023/12/28 02:39:22;;;;;;;0.98;0.90;;;;;;;10.11;40.05;93222.59;2098071;28;20104;-78
2023/12/28 02:40:24;;;;;;;1.00;0.90;;;;;;;10.24;39.17;93210.91;2105914;28;20038;-77
2023/12/28 02:41:26;;;;;;;1.10;1.00;;;;;;;10.28;41.11;93216.94;2097853;28;20040;-78
2023/12/28 02:42:26;;;;;;;1.25;1.00;;;;;;;10.20;40.39;93215.53;2097088;28;20641;-78
2023/12/28 02:43:27;;;;;;;1.08;0.98;;;;;;;10.22;39.93;93212.44;2095846;28;20035;-77
2023/12/28 02:44:28;;;;;;;0.98;0.88;;;;;;;10.23;40.08;93214.72;2098415;28;20396;-78
2023/12/28 02:45:29;;;;;;;1.08;0.85;;;;;;;10.12;40.78;93221.41;2103250;28;20081;-78
2023/12/28 02:46:30;;;;;;;2.97;0.95;;;;;;;9.87;40.73;93224.53;2097040;28;20094;-79
2023/12/28 02:47:31;;;;;;;0.70;0.70;;;;;;;10.09;40.35;93209.63;2088793;28;20028;-79
2023/12/28 02:48:32;;;;;;;0.80;0.77;;;;;;;9.99;40.78;93221.25;2096914;28;20139;-79
2023/12/28 02:49:33;;;;;;;1.63;0.80;;;;;;;10.11;41.16;93210.00;2097338;28;20020;-79
2023/12/28 02:50:35;;;;;;;1.33;0.80;;;;;;;10.17;40.18;93223.63;2099009;28;20020;-79
2023/12/28 02:51:36;;;;;;;0.93;0.80;;;;;;;10.08;40.98;93214.22;2105069;28;20119;-79
2023/12/28 02:52:37;;;;;;;1.45;1.00;;;;;;;10.12;40.44;93211.50;2097524;28;20028;-79
2023/12/28 02:53:38;;;;;;;1.27;1.00;;;;;;;10.14;41.79;93209.19;2088877;28;20025;-80
2023/12/28 02:54:39;;;;;;;1.00;0.75;;;;;;;10.08;41.23;93208.88;2096495;28;20040;-79
2023/12/28 02:55:39;;;;;;;1.17;0.80;;;;;;;9.80;41.59;93207.47;2098892;28;20540;-78
2023/12/28 02:56:41;;;;;;;1.00;0.90;;;;;;;10.21;40.31;93208.28;2097230;28;20064;-78
2023/12/28 02:57:44;;;;;;;1.88;0.80;;;;;;;10.15;40.51;93216.03;2107646;28;20854;-80
2023/12/28 02:58:45;;;;;;;1.30;0.80;;;;;;;10.24;40.55;93205.56;2122709;28;20024;-79
2023/12/28 02:59:46;;;;;;;0.95;0.90;;;;;;;10.26;40.99;93226.53;2110725;28;20035;-79
2023/12/28 03:00:48;;;;;;;1.05;0.82;;;;;;;10.24;40.61;93202.91;2113534;28;20186;-79
2023/12/28 03:01:49;;;;;;;2.30;1.20;;;;;;;10.08;41.37;93200.88;2105747;28;20034;-79
2023/12/28 03:02:50;;;;;;;1.52;0.98;;;;;;;9.97;42.88;93203.00;2089187;28;20040;-79
2023/12/28 03:03:51;;;;;;;1.48;1.00;;;;;;;9.96;41.99;93216.72;2096693;28;20028;-79
2023/12/28 03:04:52;;;;;;;1.13;0.70;;;;;;;10.15;40.75;93216.03;2105738;28;20032;-80
2023/12/28 03:06:27;;;;;;;2.50;0.80;;;;;;;10.37;41.35;93205.72;2104304;28;20020;-79
2023/12/28 03:07:28;;;;;;;0.82;0.82;;;;;;;10.12;40.36;93206.16;2109043;28;20023;-77
2023/12/28 03:08:28;;;;;;;1.00;0.85;;;;;;;10.11;41.41;93199.31;2113793;28;20024;-77
2023/12/28 03:09:30;;;;;;;1.95;1.08;;;;;;;10.14;42.00;93201.16;2104780;28;20031;-78
2023/12/28 03:10:31;;;;;;;1.17;1.08;;;;;;;10.07;42.04;93206.63;2114152;28;20073;-78
2023/12/28 03:11:32;;;;;;;1.55;1.05;;;;;;;10.08;41.91;93205.47;2114467;28;20116;-78
2023/12/28 03:12:33;;;;;;;2.75;1.15;;;;;;;10.10;41.96;93208.50;2113554;28;20031;-77
2023/12/28 03:13:34;;;;;;;2.10;1.10;;;;;;;10.12;41.50;93208.06;2114024;28;20777;-78
2023/12/28 03:14:35;;;;;;;1.20;1.00;;;;;;;10.09;42.56;93204.28;2109884;28;20028;-78
2023/12/28 03:15:36;;;;;;;1.08;0.90;;;;;;;9.91;42.30;93207.28;2113404;28;20059;-77
2023/12/28 03:16:37;;;;;;;1.05;0.98;;;;;;;10.02;41.12;93207.84;2122522;28;20042;-77
2023/12/28 03:17:38;;;;;;;1.70;0.93;;;;;;;9.99;42.18;93197.97;2114515;28;20020;-79
2023/12/28 03:18:39;;;;;;;2.15;1.10;;;;;;;9.87;41.96;93209.25;2113385;28;20418;-79
2023/12/28 03:19:40;;;;;;;2.05;1.02;;;;;;;9.92;42.78;93208.81;2113778;28;20424;-78
2023/12/28 03:20:41;;;;;;;0.70;0.70;;;;;;;9.99;42.20;93202.56;2112434;27;20034;-79
2023/12/28 03:21:42;;;;;;;0.80;0.80;;;;;;;10.01;42.00;93206.34;2123310;27;20034;-78
2023/12/28 03:22:43;;;;;;;1.33;1.00;;;;;;;9.93;42.72;93196.22;2101111;28;20362;-79
2023/12/28 03:23:44;;;;;;;1.40;0.90;;;;;;;9.95;41.72;93191.19;2090416;28;20021;-78
2023/12/28 03:24:46;;;;;;;1.00;1.00;;;;;;;10.11;41.73;93188.63;2108116;28;20093;-78
2023/12/28 03:25:47;;;;;;;0.95;0.90;;;;;;;9.99;42.49;93186.56;2112405;28;20027;-79
2023/12/28 03:26:48;;;;;;;1.20;0.90;;;;;;;9.86;43.65;93201.66;2107306;28;20473;-78
2023/12/28 03:27:49;;;;;;;1.10;1.00;;;;;;;9.84;43.00;93188.75;2118508;27;20038;-80
2023/12/28 03:28:50;;;;;;;0.90;0.85;;;;;;;9.91;43.85;93187.84;2098859;28;20024;-78
2023/12/28 03:29:51;;;;;;;1.80;1.05;;;;;;;9.80;42.79;93193.38;2098736;28;20020;-79
2023/12/28 03:30:52;;;;;;;1.92;0.90;;;;;;;9.82;42.88;93199.06;2097751;28;20082;-80
2023/12/28 03:31:53;;;;;;;1.05;0.95;;;;;;;9.71;43.87;93198.50;2098268;28;20845;-80
2023/12/28 03:32:54;;;;;;;1.33;0.90;;;;;;;9.84;42.56;93192.16;2106755;28;20024;-80
2023/12/28 03:33:55;;;;;;;4.38;0.90;;;;;;;9.83;43.91;93189.88;2098430;28;20028;-79
2023/12/28 03:34:56;;;;;;;0.90;0.90;;;;;;;9.72;44.16;93192.00;2098794;28;20075;-79
2023/12/28 03:35:57;;;;;;;1.55;1.02;;;;;;;9.43;44.98;93186.38;2114771;28;20031;-78
2023/12/28 03:36:58;;;;;;;4.63;1.00;;;;;;;9.50;45.63;93184.34;2106884;28;20048;-79
2023/12/28 03:38:00;;;;;;;1.60;0.90;;;;;;;9.69;44.84;93180.22;2099008;28;20382;-79
2023/12/28 03:39:01;;;;;;;0.73;0.73;;;;;;;9.71;44.58;93182.50;2107372;28;20028;-79
2023/12/28 03:40:02;;;;;;;1.67;1.10;;;;;;;9.71;44.37;93174.47;2098619;28;20024;-78
2023/12/28 03:41:03;;;;;;;1.05;0.95;;;;;;;9.69;45.03;93172.19;2098765;28;20028;-79
2023/12/28 03:42:04;;;;;;;0.95;0.90;;;;;;;9.89;43.81;93172.25;2098473;28;20115;-79
2023/12/28 03:43:05;;;;;;;1.15;0.90;;;;;;;9.84;45.18;93172.72;2091559;28;20075;-79
2023/12/28 03:44:06;;;;;;;1.92;0.90;;;;;;;9.76;44.15;93177.41;2089395;28;20032;-79
2023/12/28 03:45:07;;;;;;;1.08;0.98;;;;;;;9.87;45.44;93173.81;2091435;28;20033;-79
2023/12/28 03:46:09;;;;;;;1.98;0.90;;;;;;;9.65;44.99;93179.50;2106778;28;20027;-79
2023/12/28 03:47:11;;;;;;;2.42;1.10;;;;;;;9.81;45.01;93179.63;2115907;27;20400;-79
2023/12/28 03:48:12;;;;;;;2.28;0.90;;;;;;;9.75;44.82;93175.91;2115111;28;20027;-79
2023/12/28 03:49:18;;;;;;;1.15;0.80;;;;;;;9.65;45.96;93184.84;2115334;28;20058;-80
2023/12/28 03:50:19;;;;;;;1.23;0.70;;;;;;;9.75;45.76;93185.84;2110273;28;20026;-79
2023/12/28 03:51:20;;;;;;;1.73;0.90;;;;;;;10.05;45.62;93177.66;2122012;27;20367;-78
2023/12/28 03:52:22;;;;;;;1.38;0.70;;;;;;;9.91;45.70;93169.16;2116177;27;20042;-78
2023/12/28 03:53:23;;;;;;;2.15;0.98;;;;;;;9.92;46.13;93171.44;2106800;28;20077;-79
2023/12/28 03:54:24;;;;;;;0.90;0.80;;;;;;;9.84;46.21;93167.38;2115071;28;20557;-79
2023/12/28 03:55:25;;;;;;;1.25;0.90;;;;;;;9.95;46.00;93165.25;2105361;28;20028;-79
2023/12/28 03:56:27;;;;;;;1.95;0.80;;;;;;;9.78;47.63;93166.31;2101624;28;20016;-79
2023/12/28 03:57:28;;;;;;;0.90;0.85;;;;;;;9.57;47.15;93168.22;2108453;27;20386;-79
2023/12/28 03:58:29;;;;;;;2.70;1.20;;;;;;;9.55;47.14;93159.84;2123808;27;20042;-79
2023/12/28 03:59:30;;;;;;;1.02;0.90;;;;;;;9.71;46.82;93164.56;2106600;28;20024;-78
2023/12/28 04:00:31;;;;;;;1.10;0.90;;;;;;;9.68;47.64;93167.28;2114902;28;20034;-80
2023/12/28 04:01:32;;;;;;;1.52;0.90;;;;;;;9.75;46.97;93165.25;2106921;28;20038;-80
2023/12/28 04:02:33;;;;;;;2.55;1.58;;;;;;;9.78;47.48;93166.31;2090542;28;20095;-78
2023/12/28 04:03:34;;;;;;;1.25;0.75;;;;;;;9.62;47.66;93172.34;2106445;28;20032;-79
2023/12/28 04:04:35;;;;;;;2.42;1.00;;;;;;;9.81;48.07;93171.59;2115426;28;20023;-79
2023/12/28 04:05:36;;;;;;;1.30;0.80;;;;;;;10.08;46.76;93168.06;2106386;28;20373;-79
2023/12/28 04:06:38;;;;;;;1.30;0.85;;;;;;;9.77;48.83;93160.25;2114461;28;20019;-79
2023/12/28 04:07:38;;;;;;;1.30;0.98;;;;;;;9.73;48.57;93158.78;2131218;27;20018;-79
2023/12/28 04:08:40;;;;;;;1.70;0.90;;;;;;;9.81;48.13;93166.28;2116839;27;20511;-79
2023/12/28 04:09:41;;;;;;;2.85;0.80;;;;;;;9.58;49.17;93171.66;2097831;28;20626;-79
2023/12/28 04:10:42;;;;;;;1.77;0.93;;;;;;;9.51;50.19;93172.50;2090324;28;20029;-79
2023/12/28 04:11:43;;;;;;;2.25;0.77;;;;;;;9.46;50.30;93174.91;2089822;28;20033;-79
2023/12/28 04:12:44;;;;;;;0.90;0.90;;;;;;;9.43;51.24;93168.44;2101331;28;20103;-79
2023/12/28 04:13:45;;;;;;;1.80;0.95;;;;;;;9.45;51.14;93182.16;2123892;27;20019;-78
2023/12/28 04:14:46;;;;;;;2.00;0.77;;;;;;;9.74;51.01;93168.31;2123039;27;20510;-78
2023/12/28 04:15:47;;;;;;;0.85;0.82;;;;;;;9.67;52.32;93169.19;2115079;27;20081;-80
2023/12/28 04:16:48;;;;;;;0.95;0.77;;;;;;;9.55;51.56;93167.88;2107300;28;20435;-80
2023/12/28 04:17:49;;;;;;;1.23;0.90;;;;;;;9.34;53.57;93162.88;2106461;28;20122;-80
2023/12/28 04:18:50;;;;;;;1.73;0.73;;;;;;;9.20;54.90;93163.88;2101790;28;20030;-79
2023/12/28 04:19:51;;;;;;;1.13;0.75;;;;;;;9.30;53.94;93162.19;2111046;28;20098;-78
2023/12/28 04:20:53;;;;;;;1.17;1.00;;;;;;;9.29;54.67;93150.00;2114327;28;20019;-80
2023/12/28 04:21:55;;;;;;;0.70;0.70;;;;;;;9.20;55.35;93150.53;2106357;28;20027;-79
2023/12/28 04:22:57;;;;;;;1.08;0.98;;;;;;;9.52;54.00;93154.56;2098746;28;20504;-80
2023/12/28 04:23:57;;;;;;;1.05;0.77;;;;;;;9.73;53.43;93158.78;2102710;28;20043;-79
2023/12/28 04:24:58;;;;;;;1.13;0.95;;;;;;;9.62;53.77;93159.00;2106498;28;20059;-79
2023/12/28 04:25:59;;;;;;;1.60;0.70;;;;;;;9.66;53.88;93156.25;2102446;28;20028;-80
2023/12/28 04:27:00;;;;;;;1.75;0.75;;;;;;;9.56;54.42;93158.69;2115470;27;20522;-79
2023/12/28 04:28:01;;;;;;;1.58;0.93;;;;;;;9.65;53.55;93160.06;2109042;28;20103;-78
2023/12/28 04:29:03;;;;;;;1.20;1.10;;;;;;;9.48;54.66;93168.00;2107223;28;20024;-79
2023/12/28 04:30:08;;;;;;;0.80;0.80;;;;;;;9.40;55.15;93165.84;2110624;28;20027;-79
2023/12/28 04:31:09;;;;;;;0.90;0.77;;;;;;;9.64;55.01;93161.25;2095517;28;20023;-80
2023/12/28 04:32:10;;;;;;;2.17;1.02;;;;;;;9.54;54.78;93157.59;2095134;28;20028;-79
2023/12/28 04:33:10;;;;;;;1.05;0.75;;;;;;;9.75;54.14;93159.16;2083606;28;20029;-79
2023/12/28 04:34:11;;;;;;;1.50;0.80;;;;;;;9.80;55.05;93158.69;2106424;28;20024;-79
2023/12/28 04:35:12;;;;;;;1.20;1.00;;;;;;;9.61;55.16;93160.13;2115101;28;20479;-79
2023/12/28 04:36:13;;;;;;;1.15;1.02;;;;;;;9.58;54.99;93158.31;2114650;28;20843;-78
2023/12/28 04:37:14;;;;;;;0.73;0.73;;;;;;;9.48;57.09;93165.34;2106795;28;20035;-79
2023/12/28 04:38:15;;;;;;;1.38;0.70;;;;;;;9.63;56.72;93165.09;2098462;28;20023;-80
2023/12/28 04:39:17;;;;;;;0.80;0.80;;;;;;;9.68;57.00;93161.94;2106286;28;20027;-80
2023/12/28 04:40:18;;;;;;;0.60;0.57;;;;;;;9.72;56.42;93167.97;2106716;28;20032;-78
2023/12/28 04:41:19;;;;;;;1.33;0.82;;;;;;;9.74;57.69;93157.63;2115083;28;20352;-77
2023/12/28 04:42:20;;;;;;;1.08;0.90;;;;;;;9.85;57.37;93160.88;2101726;28;20488;-78
2023/12/28 04:43:23;;;;;;;0.77;0.77;;;;;;;9.87;57.14;93158.53;2091943;28;20032;-78
2023/12/28 04:44:25;;;;;;;0.90;0.80;;;;;;;9.79;58.41;93157.94;2088140;28;20114;-77
2023/12/28 04:45:27;;;;;;;0.70;0.65;;;;;;;9.78;57.74;93158.31;2021385;27;20031;-78
2023/12/28 04:46:28;;;;;;;1.17;0.95;;;;;;;9.80;58.72;93153.34;2021075;28;20078;-78
2023/12/28 04:47:29;;;;;;;1.55;0.90;;;;;;;9.81;58.32;93149.50;2073881;28;20027;-79
2023/12/28 04:48:31;;;;;;;0.98;0.88;;;;;;;9.67;59.90;93157.78;2091870;28;20047;-78
2023/12/28 04:49:32;;;;;;;1.45;0.73;;;;;;;9.69;59.94;93163.44;2000483;28;20086;-80
2023/12/28 04:50:33;;;;;;;0.65;0.63;;;;;;;9.85;58.15;93155.53;2010165;28;20036;-80
2023/12/28 04:51:34;;;;;;;1.20;0.90;;;;;;;9.72;59.23;93158.03;2036652;27;20035;-78